Time;durP1;ratioP1;P1;durP2;ratioP2;P2;SDS_P1;SDS_P2;PMS_P1;PMS_P2;Temp;Humidity;BMP_temperature;BMP_pressure;BME280_temperature;BME280_humidity;BME280_pressure;Samples;Min_cycle;Max_cycle;Signal;HPM_P1;HPM_P2
2022/09/01 00:00:54;;;;;;;1.27;1.17;;;;;;;;;;10531612;28;20071;-81
2022/09/01 00:05:58;;;;;;;1.92;1.10;;;;;;;;;;10515054;28;20127;-81
2022/09/01 00:11:02;;;;;;;2.55;1.33;;;;;;;;;;10540955;28;20064;-81
2022/09/01 00:16:06;;;;;;;1.67;1.27;;;;;;;;;;10519620;28;20112;-82
2022/09/01 00:21:10;;;;;;;1.70;1.40;;;;;;;;;;10527678;28;20112;-81
2022/09/01 00:26:15;;;;;;;2.47;1.17;;;;;;;;;;10526885;28;20055;-81
2022/09/01 00:31:19;;;;;;;1.25;1.15;;;;;;;;;;10533055;28;20047;-82
2022/09/01 00:36:23;;;;;;;1.27;1.00;;;;;;;;;;10533059;28;20054;-80
2022/09/01 00:41:31;;;;;;;4.22;1.35;;;;;;;;;;10511190;28;20064;-81
2022/09/01 00:46:36;;;;;;;3.40;1.40;;;;;;;;;;10514456;28;20495;-81
2022/09/01 00:51:48;;;;;;;1.35;1.20;;;;;;;;;;10513476;28;20111;-81
2022/09/01 00:56:54;;;;;;;1.25;1.05;;;;;;;;;;10516077;28;20060;-82
2022/09/01 01:01:58;;;;;;;1.85;1.33;;;;;;;;;;10536146;28;20176;-80
2022/09/01 01:07:02;;;;;;;2.10;1.27;;;;;;;;;;10534439;28;20084;-80
2022/09/01 01:12:10;;;;;;;1.55;1.23;;;;;;;;;;10515023;28;20071;-81
2022/09/01 01:17:13;;;;;;;2.65;1.15;;;;;;;;;;10539908;28;20115;-80
2022/09/01 01:28:10;;;;;;;0.88;0.88;;;;;;;;;;10499705;28;20052;-80
2022/09/01 01:33:13;;;;;;;1.60;1.20;;;;;;;;;;10501801;28;20047;-81
2022/09/01 01:38:19;;;;;;;1.98;1.30;;;;;;;;;;10502697;28;20036;-81
2022/09/01 01:43:25;;;;;;;1.65;1.17;;;;;;;;;;10526616;28;20097;-81
2022/09/01 01:48:33;;;;;;;1.25;0.93;;;;;;;;;;10518129;28;20036;-81
2022/09/01 01:53:37;;;;;;;1.17;1.10;;;;;;;;;;10528969;28;20043;-81
2022/09/01 01:58:43;;;;;;;1.27;0.98;;;;;;;;;;10517880;28;20047;-81
2022/09/01 02:03:47;;;;;;;1.20;1.00;;;;;;;;;;10534753;28;20139;-83
2022/09/01 02:08:52;;;;;;;1.52;1.10;;;;;;;;;;10528958;28;20675;-83
2022/09/01 02:13:56;;;;;;;2.28;1.10;;;;;;;;;;10515515;28;20044;-83
2022/09/01 02:19:01;;;;;;;3.05;1.25;;;;;;;;;;10534759;28;20043;-81
2022/09/01 02:24:07;;;;;;;2.08;1.20;;;;;;;;;;10529105;28;20048;-81
2022/09/01 02:29:16;;;;;;;0.95;0.93;;;;;;;;;;10556357;28;20047;-81
2022/09/01 02:34:22;;;;;;;1.40;1.30;;;;;;;;;;10539923;28;20055;-81
2022/09/01 02:39:31;;;;;;;1.52;1.00;;;;;;;;;;10512415;28;20035;-83
2022/09/01 02:44:37;;;;;;;1.30;1.20;;;;;;;;;;10517173;28;20648;-83
2022/09/01 02:49:43;;;;;;;1.55;1.30;;;;;;;;;;10537126;28;20509;-83
2022/09/01 02:54:47;;;;;;;1.70;1.25;;;;;;;;;;10527311;28;20052;-81
2022/09/01 02:59:52;;;;;;;1.77;1.20;;;;;;;;;;10538865;28;20475;-83
2022/09/01 03:04:56;;;;;;;1.10;0.98;;;;;;;;;;10523401;28;20063;-83
2022/09/01 03:10:02;;;;;;;2.65;0.90;;;;;;;;;;10523500;28;20039;-83
2022/09/01 03:15:08;;;;;;;1.20;1.02;;;;;;;;;;10550790;28;20507;-83
2022/09/01 03:20:11;;;;;;;1.20;1.10;;;;;;;;;;10538080;28;20062;-83
2022/09/01 03:25:15;;;;;;;1.42;1.10;;;;;;;;;;10528622;28;20446;-83
2022/09/01 03:30:20;;;;;;;1.10;1.00;;;;;;;;;;10522827;28;20047;-83
2022/09/01 03:35:25;;;;;;;1.40;0.90;;;;;;;;;;10510063;28;20121;-83
2022/09/01 03:40:32;;;;;;;1.85;1.00;;;;;;;;;;10517199;28;20063;-82
2022/09/01 03:45:37;;;;;;;1.38;0.93;;;;;;;;;;10528738;28;20040;-82
2022/09/01 03:50:46;;;;;;;1.67;1.10;;;;;;;;;;10511827;28;20127;-82
2022/09/01 03:55:51;;;;;;;1.08;0.90;;;;;;;;;;10549380;28;20756;-83
2022/09/01 04:00:59;;;;;;;0.88;0.88;;;;;;;;;;10516375;28;20036;-83
2022/09/01 04:06:03;;;;;;;1.33;1.20;;;;;;;;;;10529897;28;20039;-84
2022/09/01 04:11:14;;;;;;;3.25;1.00;;;;;;;;;;10523268;28;20100;-83
2022/09/01 04:21:43;;;;;;;0.80;0.80;;;;;;;;;;10512182;28;20135;-83
2022/09/01 04:26:48;;;;;;;1.48;1.10;;;;;;;;;;10519890;28;20040;-83
2022/09/01 04:31:53;;;;;;;1.33;0.90;;;;;;;;;;10527155;28;20125;-83
2022/09/01 04:36:57;;;;;;;2.30;1.13;;;;;;;;;;10557621;28;20068;-83
2022/09/01 04:42:05;;;;;;;1.35;0.90;;;;;;;;;;10521820;28;20051;-83
2022/09/01 04:47:16;;;;;;;0.93;0.80;;;;;;;;;;10525992;28;20131;-83
2022/09/01 04:52:20;;;;;;;1.40;1.20;;;;;;;;;;10527526;28;20044;-85
2022/09/01 04:57:30;;;;;;;1.02;0.90;;;;;;;;;;10526434;28;20373;-83
2022/09/01 05:02:36;;;;;;;2.22;1.30;;;;;;;;;;10532117;28;20524;-84
2022/09/01 05:07:42;;;;;;;0.90;0.90;;;;;;;;;;10547849;28;20036;-83
2022/09/01 05:12:45;;;;;;;1.13;0.70;;;;;;;;;;10547402;28;20419;-83
2022/09/01 05:17:51;;;;;;;1.02;0.85;;;;;;;;;;10545387;28;20638;-83
2022/09/01 05:22:55;;;;;;;2.75;1.13;;;;;;;;;;10536129;28;20044;-83
2022/09/01 05:28:01;;;;;;;1.20;1.00;;;;;;;;;;10510515;28;20043;-83
2022/09/01 05:33:11;;;;;;;0.80;0.80;;;;;;;;;;10525927;28;20059;-83
2022/09/01 05:38:14;;;;;;;1.20;1.02;;;;;;;;;;10537260;28;20465;-83
2022/09/01 05:43:17;;;;;;;2.35;0.90;;;;;;;;;;10542514;28;20075;-83
2022/09/01 05:48:22;;;;;;;1.10;1.00;;;;;;;;;;10532581;28;20044;-82
2022/09/01 05:53:29;;;;;;;1.00;0.93;;;;;;;;;;10514155;28;20036;-82
2022/09/01 05:58:34;;;;;;;0.82;0.75;;;;;;;;;;10527062;28;20038;-82
2022/09/01 06:04:02;;;;;;;0.95;0.70;;;;;;;;;;10525239;28;20281;-82
2022/09/01 06:09:09;;;;;;;0.95;0.70;;;;;;;;;;10542197;28;20075;-83
2022/09/01 06:14:14;;;;;;;1.00;0.90;;;;;;;;;;10538949;28;20437;-81
2022/09/01 06:19:20;;;;;;;0.60;0.60;;;;;;;;;;10527503;28;20453;-83
2022/09/01 06:24:24;;;;;;;0.80;0.68;;;;;;;;;;10531087;28;20044;-83
2022/09/01 06:29:30;;;;;;;0.60;0.57;;;;;;;;;;10520037;28;20051;-83
2022/09/01 06:34:35;;;;;;;0.70;0.68;;;;;;;;;;10539770;28;20242;-82
2022/09/01 06:39:40;;;;;;;2.47;0.90;;;;;;;;;;10517644;28;20511;-81
2022/09/01 06:44:44;;;;;;;1.88;0.70;;;;;;;;;;10524595;28;20044;-83
2022/09/01 06:49:50;;;;;;;0.63;0.60;;;;;;;;;;10518749;28;20055;-83
2022/09/01 06:54:56;;;;;;;0.93;0.60;;;;;;;;;;10500146;28;20044;-83
2022/09/01 07:00:06;;;;;;;1.40;0.45;;;;;;;;;;10529491;28;20044;-81
2022/09/01 07:05:16;;;;;;;1.95;0.70;;;;;;;;;;10520552;28;20044;-81
2022/09/01 07:10:44;;;;;;;0.50;0.32;;;;;;;;;;10510280;28;20089;-82
2022/09/01 07:16:08;;;;;;;0.40;0.35;;;;;;;;;;10534553;28;20767;-81
2022/09/01 07:21:34;;;;;;;0.43;0.43;;;;;;;;;;10514067;28;20651;-81
2022/09/01 07:26:42;;;;;;;1.17;0.65;;;;;;;;;;10520220;28;20040;-81
2022/09/01 07:31:51;;;;;;;1.27;0.50;;;;;;;;;;10540997;28;20043;-82
2022/09/01 07:37:17;;;;;;;0.47;0.47;;;;;;;;;;10518775;28;20107;-81
2022/09/01 07:42:41;;;;;;;0.90;0.40;;;;;;;;;;10527223;28;20740;-81
2022/09/01 07:48:26;;;;;;;0.40;0.40;;;;;;;;;;10560294;28;20051;-80
2022/09/01 07:53:51;;;;;;;0.88;0.63;;;;;;;;;;10525806;28;20077;-81
2022/09/01 07:58:56;;;;;;;0.63;0.40;;;;;;;;;;10524937;28;20040;-81
2022/09/01 08:04:01;;;;;;;0.60;0.50;;;;;;;;;;10525558;28;20098;-81
2022/09/01 08:09:06;;;;;;;0.57;0.30;;;;;;;;;;10515403;28;20066;-81
2022/09/01 08:14:10;;;;;;;2.13;0.50;;;;;;;;;;10530403;28;20040;-81
2022/09/01 08:19:14;;;;;;;0.90;0.60;;;;;;;;;;10514120;28;20105;-82
2022/09/01 08:24:46;;;;;;;0.30;0.30;;;;;;;;;;10550966;28;20051;-81
2022/09/01 08:29:50;;;;;;;1.23;0.50;;;;;;;;;;10538445;28;20122;-81
2022/09/01 08:34:53;;;;;;;0.70;0.52;;;;;;;;;;10537986;28;20444;-82
2022/09/01 08:39:58;;;;;;;0.98;0.43;;;;;;;;;;10520404;28;20047;-81
2022/09/01 08:45:11;;;;;;;0.47;0.47;;;;;;;;;;10535895;28;20498;-81
2022/09/01 08:50:16;;;;;;;1.15;0.47;;;;;;;;;;10540131;28;20069;-83
2022/09/01 08:55:43;;;;;;;0.60;0.50;;;;;;;;;;10548338;28;20039;-82
2022/09/01 09:00:55;;;;;;;0.45;0.40;;;;;;;;;;10540166;28;20116;-82
2022/09/01 09:06:11;;;;;;;0.57;0.43;;;;;;;;;;10560051;28;20055;-83
2022/09/01 09:11:26;;;;;;;1.23;0.65;;;;;;;;;;10540502;28;20071;-82
2022/09/01 09:16:34;;;;;;;0.40;0.40;;;;;;;;;;10532197;28;20040;-81
2022/09/01 09:21:39;;;;;;;0.73;0.50;;;;;;;;;;10532169;28;20522;-82
2022/09/01 09:26:48;;;;;;;0.60;0.40;;;;;;;;;;10532779;28;20044;-81
2022/09/01 09:32:05;;;;;;;1.20;0.60;;;;;;;;;;10519356;28;20052;-81
2022/09/01 09:37:23;;;;;;;0.63;0.55;;;;;;;;;;10524393;28;20067;-82
2022/09/01 09:42:28;;;;;;;1.55;0.65;;;;;;;;;;10528868;28;20521;-82
2022/09/01 09:47:39;;;;;;;0.57;0.57;;;;;;;;;;10555600;28;20055;-81
2022/09/01 09:52:47;;;;;;;1.50;0.82;;;;;;;;;;10521519;28;20112;-82
2022/09/01 09:57:55;;;;;;;0.82;0.57;;;;;;;;;;10508806;28;20055;-82
2022/09/01 10:03:02;;;;;;;1.17;0.60;;;;;;;;;;10538627;28;20048;-82
2022/09/01 10:08:08;;;;;;;1.27;0.60;;;;;;;;;;10537137;28;20044;-81
2022/09/01 10:13:17;;;;;;;1.23;0.60;;;;;;;;;;10545549;28;20116;-82
2022/09/01 10:18:23;;;;;;;1.25;0.75;;;;;;;;;;10515851;28;20704;-82
2022/09/01 10:23:37;;;;;;;0.57;0.50;;;;;;;;;;10529464;28;20807;-81
2022/09/01 10:28:51;;;;;;;0.40;0.40;;;;;;;;;;10531414;28;20442;-81
2022/09/01 10:33:55;;;;;;;0.57;0.52;;;;;;;;;;10519290;28;20040;-82
2022/09/01 10:39:01;;;;;;;1.00;0.52;;;;;;;;;;10522493;28;20048;-82
2022/09/01 10:44:11;;;;;;;0.47;0.40;;;;;;;;;;10531369;28;20055;-82
2022/09/01 10:49:51;;;;;;;0.90;0.60;;;;;;;;;;10512806;28;20066;-82
2022/09/01 10:54:59;;;;;;;1.20;0.57;;;;;;;;;;10527768;28;20074;-82
2022/09/01 11:00:45;;;;;;;0.47;0.47;;;;;;;;;;10526370;28;20044;-82
2022/09/01 11:06:09;;;;;;;0.60;0.50;;;;;;;;;;10530723;28;20574;-82
2022/09/01 11:11:26;;;;;;;1.10;1.00;;;;;;;;;;10552534;28;20098;-82
2022/09/01 11:16:35;;;;;;;1.08;0.63;;;;;;;;;;10532841;28;20054;-84
2022/09/01 11:22:09;;;;;;;1.00;0.77;;;;;;;;;;10546283;28;20051;-83
2022/09/01 11:27:51;;;;;;;0.55;0.55;;;;;;;;;;10544386;28;20047;-83
2022/09/01 11:33:01;;;;;;;1.00;0.50;;;;;;;;;;10549749;28;20453;-83
2022/09/01 11:38:07;;;;;;;0.47;0.47;;;;;;;;;;10545194;28;20112;-82
2022/09/01 11:43:14;;;;;;;0.70;0.60;;;;;;;;;;10561131;28;20070;-82
2022/09/01 11:48:19;;;;;;;0.50;0.50;;;;;;;;;;10546916;28;20055;-82
2022/09/01 11:53:25;;;;;;;0.77;0.40;;;;;;;;;;10528870;28;20799;-82
2022/09/01 11:58:33;;;;;;;0.50;0.50;;;;;;;;;;10543676;28;20040;-82
2022/09/01 12:03:39;;;;;;;0.47;0.45;;;;;;;;;;10543066;28;20032;-82
2022/09/01 12:08:53;;;;;;;0.65;0.50;;;;;;;;;;10518527;28;20513;-83
2022/09/01 12:14:00;;;;;;;0.68;0.50;;;;;;;;;;10533646;28;20044;-82
2022/09/01 12:19:06;;;;;;;0.50;0.38;;;;;;;;;;10541791;28;20048;-82
2022/09/01 12:24:18;;;;;;;0.98;0.70;;;;;;;;;;10533482;28;20096;-82
2022/09/01 12:29:21;;;;;;;1.20;0.57;;;;;;;;;;10511183;28;20047;-82
2022/09/01 12:34:37;;;;;;;1.63;0.60;;;;;;;;;;10539855;28;20469;-82
2022/09/01 12:39:42;;;;;;;0.43;0.40;;;;;;;;;;10542397;28;20097;-82
2022/09/01 12:44:50;;;;;;;9.73;0.60;;;;;;;;;;10513795;28;20119;-82
2022/09/01 12:49:54;;;;;;;0.57;0.50;;;;;;;;;;10521134;28;20392;-82
2022/09/01 12:55:14;;;;;;;0.57;0.40;;;;;;;;;;10520536;28;20520;-82
2022/09/01 13:00:54;;;;;;;1.10;0.50;;;;;;;;;;10533478;28;20521;-81
2022/09/01 13:06:00;;;;;;;1.15;0.40;;;;;;;;;;10553935;28;20495;-82
2022/09/01 13:11:06;;;;;;;0.98;0.38;;;;;;;;;;10554105;28;20070;-82
2022/09/01 13:16:11;;;;;;;;;;;;;;;;;;10518397;28;20111;-82
2022/09/01 13:21:16;;;;;;;1.00;0.57;;;;;;;;;;10517535;28;19919;-82
2022/09/01 13:26:20;;;;;;;0.60;0.50;;;;;;;;;;10517795;28;20490;-82
2022/09/01 13:31:23;;;;;;;0.77;0.47;;;;;;;;;;10539219;28;20499;-82
2022/09/01 13:36:35;;;;;;;1.65;0.40;;;;;;;;;;10531921;28;20512;-82
2022/09/01 13:41:48;;;;;;;2.25;0.60;;;;;;;;;;10510584;28;20061;-82
2022/09/01 13:46:51;;;;;;;0.65;0.30;;;;;;;;;;10541891;28;20047;-83
2022/09/01 13:52:04;;;;;;;0.63;0.50;;;;;;;;;;10512122;28;20108;-82
2022/09/01 13:57:08;;;;;;;0.60;0.47;;;;;;;;;;10534578;28;20086;-83
2022/09/01 14:02:13;;;;;;;2.05;0.45;;;;;;;;;;10539246;28;20055;-82
2022/09/01 14:07:19;;;;;;;0.50;0.50;;;;;;;;;;10541464;28;20047;-81
2022/09/01 14:12:23;;;;;;;1.00;0.40;;;;;;;;;;10543289;28;20047;-82
2022/09/01 14:17:30;;;;;;;0.68;0.50;;;;;;;;;;10534234;28;20035;-82
2022/09/01 14:22:35;;;;;;;0.63;0.40;;;;;;;;;;10529781;28;20149;-83
2022/09/01 14:27:41;;;;;;;0.50;0.38;;;;;;;;;;10531110;28;20085;-83
2022/09/01 14:32:45;;;;;;;0.40;0.40;;;;;;;;;;10532171;28;20055;-83
2022/09/01 14:37:49;;;;;;;0.45;0.40;;;;;;;;;;10537900;28;20065;-83
2022/09/01 14:42:53;;;;;;;1.15;0.40;;;;;;;;;;10549287;28;20087;-82
2022/09/01 14:48:02;;;;;;;0.50;0.43;;;;;;;;;;10525556;28;20135;-83
2022/09/01 14:53:10;;;;;;;1.05;0.47;;;;;;;;;;10516141;28;20047;-83
2022/09/01 14:58:13;;;;;;;0.40;0.40;;;;;;;;;;10539209;28;20043;-82
2022/09/01 15:03:17;;;;;;;0.35;0.30;;;;;;;;;;10550527;28;20063;-82
2022/09/01 15:08:24;;;;;;;0.38;0.38;;;;;;;;;;10538900;28;20078;-82
2022/09/01 15:13:27;;;;;;;0.70;0.40;;;;;;;;;;10520868;28;20059;-82
2022/09/01 15:18:31;;;;;;;0.50;0.28;;;;;;;;;;10524701;28;20876;-82
2022/09/01 15:23:35;;;;;;;0.35;0.35;;;;;;;;;;10524449;28;20066;-82
2022/09/01 15:28:39;;;;;;;0.40;0.30;;;;;;;;;;10526065;28;20039;-83
2022/09/01 15:33:43;;;;;;;0.30;0.30;;;;;;;;;;10519019;28;20064;-83
2022/09/01 15:38:48;;;;;;;0.43;0.40;;;;;;;;;;10521998;28;20048;-82
2022/09/01 15:43:52;;;;;;;1.27;0.45;;;;;;;;;;10550074;28;20105;-83
2022/09/01 15:48:55;;;;;;;0.63;0.47;;;;;;;;;;10549267;28;20079;-82
2022/09/01 15:54:05;;;;;;;0.40;0.40;;;;;;;;;;10512321;28;20039;-81
2022/09/01 15:59:09;;;;;;;0.73;0.40;;;;;;;;;;10523454;28;20043;-82
2022/09/01 16:04:15;;;;;;;0.40;0.30;;;;;;;;;;10516610;28;20043;-83
2022/09/01 16:09:22;;;;;;;0.40;0.40;;;;;;;;;;10542370;28;20043;-83
2022/09/01 16:14:27;;;;;;;0.70;0.40;;;;;;;;;;10532186;27;20043;-82
2022/09/01 16:19:39;;;;;;;0.30;0.30;;;;;;;;;;10541984;28;20039;-82
2022/09/01 16:24:46;;;;;;;0.77;0.40;;;;;;;;;;10544084;28;20783;-82
2022/09/01 16:29:54;;;;;;;0.57;0.35;;;;;;;;;;10562870;28;20040;-83
2022/09/01 16:35:00;;;;;;;0.60;0.50;;;;;;;;;;10515146;28;20048;-82
2022/09/01 16:40:16;;;;;;;1.73;0.85;;;;;;;;;;10531737;28;20698;-82
2022/09/01 16:45:32;;;;;;;0.52;0.40;;;;;;;;;;10520644;28;20054;-82
2022/09/01 16:50:43;;;;;;;0.38;0.38;;;;;;;;;;10530491;28;20060;-82
2022/09/01 16:55:59;;;;;;;0.40;0.30;;;;;;;;;;10556117;28;20044;-82
2022/09/01 17:01:16;;;;;;;0.32;0.32;;;;;;;;;;10534190;28;20040;-82
2022/09/01 17:06:25;;;;;;;0.63;0.43;;;;;;;;;;10559164;28;20036;-82
2022/09/01 17:11:36;;;;;;;0.82;0.50;;;;;;;;;;10532427;28;20075;-82
2022/09/01 17:16:43;;;;;;;0.30;0.30;;;;;;;;;;10536423;28;20507;-82
2022/09/01 17:21:52;;;;;;;0.40;0.40;;;;;;;;;;10546102;28;20071;-82
2022/09/01 17:27:01;;;;;;;0.68;0.40;;;;;;;;;;10540975;28;20063;-82
2022/09/01 17:32:11;;;;;;;0.98;0.40;;;;;;;;;;10530131;28;20449;-82
2022/09/01 17:37:23;;;;;;;2.47;0.43;;;;;;;;;;10523484;28;20291;-83
2022/09/01 17:42:35;;;;;;;0.40;0.40;;;;;;;;;;10509194;28;20655;-82
2022/09/01 17:47:47;;;;;;;1.08;0.55;;;;;;;;;;10525619;28;20047;-82
2022/09/01 17:53:00;;;;;;;0.70;0.50;;;;;;;;;;10517238;28;20545;-82
2022/09/01 17:58:13;;;;;;;0.55;0.40;;;;;;;;;;10538182;28;20134;-82
2022/09/01 18:03:30;;;;;;;0.95;0.50;;;;;;;;;;10552930;28;20040;-82
2022/09/01 18:08:39;;;;;;;0.65;0.40;;;;;;;;;;10560975;28;21022;-82
2022/09/01 18:13:49;;;;;;;1.65;0.40;;;;;;;;;;10574262;28;20078;-82
2022/09/01 18:18:56;;;;;;;0.80;0.50;;;;;;;;;;10501561;28;20049;-83
2022/09/01 18:24:12;;;;;;;0.57;0.50;;;;;;;;;;10487653;28;20386;-83
2022/09/01 18:29:17;;;;;;;;;;;;;;;;;;10480245;28;20062;-83
2022/09/01 18:34:29;;;;;;;0.50;0.40;;;;;;;;;;10480247;28;19920;-83
2022/09/01 18:39:45;;;;;;;0.98;0.50;;;;;;;;;;10489183;28;20059;-83
2022/09/01 18:44:56;;;;;;;2.08;0.55;;;;;;;;;;10509323;28;21079;-82
2022/09/01 18:50:06;;;;;;;1.25;0.80;;;;;;;;;;10483821;28;20064;-83
2022/09/01 18:55:20;;;;;;;1.33;0.80;;;;;;;;;;10481267;28;20720;-83
2022/09/01 19:00:30;;;;;;;2.05;0.77;;;;;;;;;;10471535;28;20048;-82
2022/09/01 19:05:44;;;;;;;1.30;0.60;;;;;;;;;;10477222;28;20032;-82
2022/09/01 19:10:53;;;;;;;0.95;0.70;;;;;;;;;;10482700;28;20671;-83
2022/09/01 19:16:12;;;;;;;0.90;0.75;;;;;;;;;;10484817;28;20536;-83
2022/09/01 19:21:21;;;;;;;0.60;0.55;;;;;;;;;;10482053;28;20738;-83
2022/09/01 19:26:26;;;;;;;0.88;0.70;;;;;;;;;;10490954;28;20105;-83
2022/09/01 19:31:34;;;;;;;0.50;0.50;;;;;;;;;;10473759;28;20051;-82
2022/09/01 19:36:42;;;;;;;0.95;0.70;;;;;;;;;;10482389;28;20074;-83
2022/09/01 19:41:50;;;;;;;1.08;0.70;;;;;;;;;;10473758;28;20515;-83
2022/09/01 19:47:03;;;;;;;0.60;0.50;;;;;;;;;;10475661;28;20044;-83
2022/09/01 19:52:11;;;;;;;1.30;0.70;;;;;;;;;;10483762;28;20048;-82
2022/09/01 19:57:20;;;;;;;0.70;0.70;;;;;;;;;;10468581;28;20507;-82
2022/09/01 20:02:30;;;;;;;0.93;0.70;;;;;;;;;;10490310;28;20039;-82
2022/09/01 20:07:39;;;;;;;1.00;0.80;;;;;;;;;;10493036;28;20032;-82
2022/09/01 20:12:47;;;;;;;2.92;0.85;;;;;;;;;;10484473;28;20041;-81
2022/09/01 20:17:57;;;;;;;1.88;0.80;;;;;;;;;;10499274;28;20139;-82
2022/09/01 20:23:03;;;;;;;0.60;0.60;;;;;;;;;;10495585;28;20068;-82
2022/09/01 20:28:08;;;;;;;;;;;;;;;;;;10480457;28;20040;-82
2022/09/01 20:33:17;;;;;;;2.22;0.98;;;;;;;;;;10497273;28;19943;-82
2022/09/01 20:43:51;;;;;;;1.73;0.98;;;;;;;;;;10522108;28;20044;-83
2022/09/01 20:48:57;;;;;;;1.77;1.00;;;;;;;;;;10517080;28;20040;-83
2022/09/01 20:54:14;;;;;;;1.45;0.90;;;;;;;;;;10527699;28;20068;-83
2022/09/01 20:59:28;;;;;;;4.03;1.27;;;;;;;;;;10509899;28;20063;-83
2022/09/01 21:04:44;;;;;;;1.92;0.93;;;;;;;;;;10507167;28;20052;-83
2022/09/01 21:09:52;;;;;;;;;;;;;;;;;;10514122;28;20048;-83
2022/09/01 21:15:06;;;;;;;1.42;0.82;;;;;;;;;;10511574;28;19926;-83
2022/09/01 21:20:55;;;;;;;3.83;1.27;;;;;;;;;;10526099;28;20036;-82
2022/09/01 21:26:15;;;;;;;2.65;1.30;;;;;;;;;;10494420;28;20040;-82
2022/09/01 21:31:19;;;;;;;4.75;2.10;;;;;;;;;;10499358;28;20078;-82
2022/09/01 21:36:23;;;;;;;5.22;2.38;;;;;;;;;;10489927;28;20048;-82
2022/09/01 21:41:27;;;;;;;4.47;2.03;;;;;;;;;;10489028;28;20071;-83
2022/09/01 21:46:30;;;;;;;3.53;1.88;;;;;;;;;;10490265;28;20504;-82
2022/09/01 21:51:35;;;;;;;2.97;1.60;;;;;;;;;;10483859;28;20052;-82
2022/09/01 21:56:39;;;;;;;2.85;1.42;;;;;;;;;;10484176;28;20048;-83
2022/09/01 22:01:42;;;;;;;3.85;1.50;;;;;;;;;;10493734;28;20090;-83
2022/09/01 22:06:47;;;;;;;3.63;1.95;;;;;;;;;;10506634;28;20051;-82
2022/09/01 22:11:51;;;;;;;3.90;1.40;;;;;;;;;;10498035;28;20484;-82
2022/09/01 22:16:55;;;;;;;2.03;1.38;;;;;;;;;;10493797;28;20512;-82
2022/09/01 22:22:01;;;;;;;4.57;1.60;;;;;;;;;;10493821;28;20040;-81
2022/09/01 22:27:05;;;;;;;1.60;1.00;;;;;;;;;;10495307;28;20068;-82
2022/09/01 22:32:08;;;;;;;3.00;1.30;;;;;;;;;;10501814;28;20040;-82
2022/09/01 22:37:13;;;;;;;2.97;1.02;;;;;;;;;;10513151;28;20036;-82
2022/09/01 22:42:16;;;;;;;1.25;1.02;;;;;;;;;;10504330;28;20060;-83
2022/09/01 22:47:20;;;;;;;2.28;1.00;;;;;;;;;;10495758;28;20616;-83
2022/09/01 22:52:25;;;;;;;1.73;0.90;;;;;;;;;;10494363;28;20044;-82
2022/09/01 22:57:28;;;;;;;1.90;1.00;;;;;;;;;;10490654;28;20075;-82
2022/09/01 23:02:33;;;;;;;1.63;1.15;;;;;;;;;;10491887;28;20050;-82
2022/09/01 23:07:38;;;;;;;1.45;0.88;;;;;;;;;;10499268;28;20568;-82
2022/09/01 23:12:42;;;;;;;1.80;1.10;;;;;;;;;;10508197;28;20055;-82
2022/09/01 23:17:45;;;;;;;3.10;1.40;;;;;;;;;;10493653;28;20757;-82
2022/09/01 23:22:50;;;;;;;1.50;1.08;;;;;;;;;;10492378;28;20936;-82
2022/09/01 23:27:54;;;;;;;1.90;1.17;;;;;;;;;;10502719;28;20147;-82
2022/09/01 23:32:57;;;;;;;1.90;0.90;;;;;;;;;;10499719;28;20048;-81
2022/09/01 23:38:02;;;;;;;2.15;0.98;;;;;;;;;;10479200;28;20072;-82
2022/09/01 23:43:05;;;;;;;2.22;1.00;;;;;;;;;;10486764;28;20116;-83
2022/09/01 23:48:11;;;;;;;1.58;1.20;;;;;;;;;;10480823;28;20083;-82
2022/09/01 23:53:16;;;;;;;2.13;1.10;;;;;;;;;;10476027;28;20445;-82
2022/09/01 23:58:20;;;;;;;3.10;1.30;;;;;;;;;;10490582;28;20093;-83
